RKSS/GMP METAR and TAF weather

Enter ICAO airport designator
Station Type Date Time Source
RKSS METAR 2022/01/26 19:00 UTC NOAA

RKSS 261900Z 34004KT CAVOK M05/M10 Q1026 NOSIG


Station Type Date Time Source
RKSS Decoded METAR 2022/01/26 19:00 UTC NOAA

Seoul / Kimp'O International Airport, Korea, South (RKSS) 37-33N 126-48E 18M
Jan 26, 2022 - 02:00 PM EST / 2022.01.26 1900 UTC
Wind: from the NNW (340 degrees) at 5 MPH (4 KT):0
Visibility: greater than 7 mile(s):0
Temperature: 23 F (-5 C)
Windchill: 15 F (-9 C):1
Dew Point: 14 F (-10 C)
Relative Humidity: 67%
Pressure (altimeter): 30.30 in. Hg (1026 hPa)
ob: RKSS 261900Z 34004KT CAVOK M05/M10 Q1026 NOSIG
cycle: 19

Station Type Date Time Source
RKSS TAF 2022/01/26 18:07 UTC NOAA

TAF RKSS 261700Z 2618/2724 32006KT CAVOK TNM05/2622Z TX04/2705Z TXM09/2722Z

Example: see airport list